Main page
METAR-TAF:

METAR-TAF

Airports :

Northwest Alabama Regional Airport

Muscle Shoals, Alabama, United States

latitude: 34-44-38N, longitude: 087-35-58W, elevation: 548 ft

Current weather observation

The report was made 21 minutes ago, at 21:53 UTC
Calm wind
Temperature 66°F
Humidity 30%
Pressure 29.99 in. Hg
Visibility: 10 miles
Clear sky

METAR: KMSL 012153Z AUTO 00000KT 10SM CLR 19/01 A2999 RMK AO2 SLP154 T01890011

Time: 17:14 (22:14 UTC)

Forecast

The report was made 4 hours and 54 minutes ago, at 17:20 UTC
Forecast valid from 01 at 18 UTC to 02 at 18 UTC
Wind 8 mph from the North with gusts up to 14 mph
Visibility: 6 miles
Few clouds at a height of 25000 ft
From 02 at 0300 UTC
Wind 3 mph from variable directions
Visibility: 6 miles
Few clouds at a height of 25000 ft

TAF: KMSL 011720Z 0118/0218 36007G12KT P6SM FEW250 FM020300 VRB03KT P6SM FEW250

Weather observations and forecasts of more than 4000 airports (METAR and TAF reports).

The available stations are represented by yellow and red dots on the map.

Hover mouse over dot to see the name of the station.

Then click to see weather observations and forecasts.

To change the map : click on the green buttons with a black cross to zoom in, on the green button with a dash to zoom out, or on the green arrows for adjacent maps.


METAR-TAF: